Salt Lake City, Utah
Traffic Map
Current Weather Conditions
Salt Lake City, Utah
Clear
Clear
13°
Feels Like: 13°
Wind Chill: 13° Ceiling: Unl
Heat Index: 13° Visibility: 10mi
Dew Point: Wind: 5mph
Humidity: 57% Direction: 120° (ESE)
Pressure: 29.97in Gusts: 0mph
Raw Report DataKSLC 240854Z 12004KT 10SM CLR 13/05 A2997 RMK AO2 SLP116 60000 T01330050 58023
Traffic Incident Summary
Active as of:
Severity:
Category:
InformationThere was an issue retrieving the traffic information for this location. Please try a different location or try again shortly.
Advertisements